createdAt,value
2019-05-14T00:01:52.433Z,128.23
2019-05-14T00:04:22.219Z,127.57
2019-05-14T00:06:52.082Z,127.33
2019-05-14T00:09:21.845Z,128.03
2019-05-14T00:11:51.630Z,129.70
2019-05-14T00:14:23.283Z,126.87
2019-05-14T00:16:52.866Z,128.60
2019-05-14T00:19:22.652Z,127.23
2019-05-14T00:21:52.427Z,130.30
2019-05-14T00:24:22.261Z,126.67
2019-05-14T00:26:52.112Z,126.47
2019-05-14T00:29:22.100Z,126.90
2019-05-14T00:31:51.848Z,127.13
2019-05-14T00:34:21.599Z,128.13
2019-05-14T00:36:52.435Z,127.17
2019-05-14T00:39:22.379Z,127.23
2019-05-14T00:41:52.092Z,126.93
2019-05-14T00:44:21.789Z,126.93
2019-05-14T00:46:51.798Z,127.07
2019-05-14T00:49:21.611Z,126.67
2019-05-14T00:51:51.894Z,127.03
2019-05-14T00:54:21.880Z,127.97
2019-05-14T00:56:52.166Z,126.33
2019-05-14T00:59:22.110Z,128.33
2019-05-14T01:01:51.828Z,126.90
2019-05-14T01:04:22.231Z,126.77
2019-05-14T01:06:52.270Z,127.70
2019-05-14T01:09:22.085Z,126.30
2019-05-14T01:11:51.900Z,128.27
2019-05-14T01:14:21.736Z,127.80
2019-05-14T01:16:51.589Z,127.60
2019-05-14T01:19:21.480Z,126.27
2019-05-14T01:21:51.222Z,126.63
2019-05-14T01:24:21.584Z,126.73
2019-05-14T01:26:52.298Z,126.10
2019-05-14T01:29:22.101Z,125.57
2019-05-14T01:31:52.795Z,125.80
2019-05-14T01:34:22.564Z,126.67
2019-05-14T01:36:52.964Z,125.97
2019-05-14T01:39:22.811Z,126.97
2019-05-14T01:41:52.595Z,125.93
2019-05-14T01:44:22.363Z,125.77
2019-05-14T01:46:52.092Z,127.17
2019-05-14T01:49:22.763Z,127.30
2019-05-14T01:51:52.529Z,126.60
2019-05-14T01:54:22.409Z,126.33
2019-05-14T01:56:52.187Z,126.87
2019-05-14T01:59:21.936Z,126.73
2019-05-14T02:01:51.861Z,126.77
2019-05-14T02:04:22.071Z,126.67
2019-05-14T02:06:52.022Z,127.53
2019-05-14T02:09:22.271Z,126.87
2019-05-14T02:11:52.049Z,126.20
2019-05-14T02:14:22.120Z,126.80
2019-05-14T02:16:51.964Z,126.37
2019-05-14T02:19:22.167Z,126.73
2019-05-14T02:21:52.155Z,125.97
2019-05-14T02:24:21.961Z,125.87
2019-05-14T02:26:51.698Z,126.80
2019-05-14T02:29:22.527Z,126.30
2019-05-14T02:31:52.230Z,126.57
2019-05-14T02:34:22.047Z,126.67
2019-05-14T02:36:51.889Z,126.00
2019-05-14T02:39:21.797Z,125.93
2019-05-14T02:41:51.509Z,127.17
2019-05-14T02:44:21.366Z,125.60
2019-05-14T02:46:51.245Z,126.23
2019-05-14T02:49:21.051Z,126.00
2019-05-14T02:51:50.867Z,126.23
2019-05-14T02:54:20.713Z,126.07
2019-05-14T02:56:50.449Z,125.77
2019-05-14T02:59:20.305Z,126.37
2019-05-14T03:01:50.463Z,125.90
2019-05-14T03:04:20.345Z,125.83
2019-05-14T03:06:50.242Z,125.90
2019-05-14T03:09:20.584Z,126.40
2019-05-14T03:11:50.539Z,127.27
2019-05-14T03:14:20.288Z,126.40
2019-05-14T03:16:50.228Z,126.60
2019-05-14T03:19:20.025Z,126.27
2019-05-14T03:21:50.412Z,126.10
2019-05-14T03:24:20.314Z,126.63
2019-05-14T03:26:50.382Z,126.00
2019-05-14T03:29:25.559Z,125.20
2019-05-14T03:31:53.473Z,126.20
2019-05-14T03:34:23.344Z,125.63
2019-05-14T03:36:53.721Z,125.70
2019-05-14T03:39:23.714Z,127.20
2019-05-14T03:41:53.591Z,125.83
2019-05-14T03:44:23.340Z,125.40
2019-05-14T03:46:56.043Z,126.70
2019-05-14T03:49:28.642Z,127.20
2019-05-14T03:52:00.262Z,125.57
2019-05-14T03:54:29.828Z,125.40
2019-05-14T03:57:00.456Z,125.70
2019-05-14T03:59:30.548Z,125.37
2019-05-14T04:02:00.697Z,125.47
2019-05-14T04:04:30.730Z,125.03
2019-05-14T04:07:02.660Z,125.07
2019-05-14T04:09:34.196Z,126.00
2019-05-14T04:12:09.561Z,127.07
2019-05-14T04:14:40.497Z,126.73
2019-05-14T04:17:15.454Z,126.23
2019-05-14T04:19:49.519Z,125.10
2019-05-14T04:22:22.232Z,126.30
2019-05-14T04:24:54.313Z,127.13
2019-05-14T04:27:29.595Z,126.80
2019-05-14T04:30:00.716Z,131.50
2019-05-14T04:32:31.304Z,126.80
2019-05-14T04:35:02.682Z,126.83
2019-05-14T04:37:32.602Z,130.77
2019-05-14T04:40:02.436Z,128.37
2019-05-14T04:42:32.268Z,131.90
2019-05-14T04:45:05.534Z,132.10
2019-05-14T04:47:37.377Z,128.07
2019-05-14T04:50:06.199Z,134.77
2019-05-14T04:52:40.366Z,127.87
2019-05-14T04:55:10.000Z,127.57
2019-05-14T04:57:39.941Z,127.43
2019-05-14T05:00:12.312Z,127.47
2019-05-14T05:02:41.113Z,129.37
2019-05-14T05:05:10.884Z,133.50
2019-05-14T05:07:40.810Z,129.50
2019-05-14T05:10:10.685Z,128.20
2019-05-14T05:12:40.334Z,135.17
2019-05-14T05:15:10.166Z,128.70
2019-05-14T05:17:48.190Z,129.33
2019-05-14T05:20:11.491Z,128.07
2019-05-14T05:22:41.848Z,127.50
2019-05-14T05:25:12.165Z,129.10
2019-05-14T05:27:42.000Z,133.10
2019-05-14T05:30:11.759Z,131.33
2019-05-14T05:32:41.437Z,128.57
2019-05-14T05:35:11.273Z,128.13
2019-05-14T05:37:40.966Z,126.90
2019-05-14T05:40:10.899Z,128.53
2019-05-14T05:42:40.680Z,131.87
2019-05-14T05:45:10.606Z,128.70
2019-05-14T05:47:54.085Z,128.07
2019-05-14T05:50:12.087Z,127.47
2019-05-14T05:52:41.764Z,134.73
2019-05-14T05:55:11.805Z,130.33
2019-05-14T05:57:41.456Z,127.30
2019-05-14T06:00:11.618Z,131.47
2019-05-14T06:02:41.438Z,126.43
2019-05-14T06:05:11.230Z,130.87
2019-05-14T06:07:40.950Z,128.50
2019-05-14T06:10:10.898Z,127.90
2019-05-14T06:12:40.576Z,125.40
2019-05-14T06:15:14.095Z,124.70
2019-05-14T06:17:42.085Z,124.00
2019-05-14T06:20:11.869Z,124.00
2019-05-14T06:22:41.632Z,125.10
2019-05-14T06:25:11.812Z,126.40
2019-05-14T06:27:41.634Z,126.87
2019-05-14T06:30:11.674Z,124.50
2019-05-14T06:32:41.335Z,123.13
2019-05-14T06:35:11.404Z,123.83
2019-05-14T06:37:41.169Z,124.10
2019-05-14T06:40:11.403Z,124.43
2019-05-14T06:42:41.147Z,124.30
2019-05-14T06:45:12.438Z,124.40
2019-05-14T06:47:42.148Z,123.93
2019-05-14T06:50:12.093Z,124.43
2019-05-14T06:52:41.761Z,125.60
2019-05-14T06:55:12.800Z,128.00
2019-05-14T06:57:42.504Z,129.90
2019-05-14T07:00:12.685Z,124.30
2019-05-14T07:02:44.122Z,125.80
2019-05-14T07:05:14.279Z,124.73
2019-05-14T07:07:43.960Z,125.63
2019-05-14T07:10:14.002Z,134.77
2019-05-14T07:12:43.733Z,124.87
2019-05-14T07:15:13.677Z,125.50
2019-05-14T07:17:43.372Z,124.80
2019-05-14T07:20:13.607Z,125.60
2019-05-14T07:22:43.286Z,126.57
2019-05-14T07:25:13.131Z,127.13
2019-05-14T07:27:42.809Z,128.27
2019-05-14T07:30:13.253Z,128.37
2019-05-14T07:32:43.055Z,126.83
2019-05-14T07:35:12.888Z,123.00
2019-05-14T07:37:42.721Z,127.77
2019-05-14T07:40:12.978Z,125.13
2019-05-14T07:42:42.639Z,125.57
2019-05-14T07:45:13.584Z,128.60
2019-05-14T07:47:43.364Z,126.53
2019-05-14T07:50:13.783Z,127.63
2019-05-14T07:52:45.987Z,125.57
2019-05-14T07:55:18.344Z,128.40
2019-05-14T07:57:48.098Z,137.57
2019-05-14T08:00:19.325Z,132.10
2019-05-14T08:02:49.259Z,131.80
2019-05-14T08:05:18.995Z,132.87
2019-05-14T08:07:48.740Z,133.30
2019-05-14T08:10:18.723Z,140.60
2019-05-14T08:12:48.660Z,132.33
2019-05-14T08:15:22.248Z,132.60
2019-05-14T08:17:49.941Z,133.37
2019-05-14T08:20:19.902Z,132.00
2019-05-14T08:22:49.578Z,134.13
2019-05-14T08:25:19.273Z,132.67
2019-05-14T08:27:49.234Z,131.57
2019-05-14T08:30:19.595Z,131.70
2019-05-14T08:32:49.260Z,130.90
2019-05-14T08:35:19.033Z,136.00
2019-05-14T08:37:49.289Z,130.50
2019-05-14T08:40:21.890Z,129.93
2019-05-14T08:42:51.592Z,130.30
2019-05-14T08:45:21.344Z,131.17
2019-05-14T08:47:51.088Z,132.20
2019-05-14T08:50:20.871Z,131.73
2019-05-14T08:52:50.530Z,130.37
2019-05-14T08:55:20.299Z,131.07
2019-05-14T08:57:50.133Z,129.97
2019-05-14T09:00:20.144Z,131.43
2019-05-14T09:02:49.897Z,131.50
2019-05-14T09:05:19.657Z,130.30
2019-05-14T09:07:49.697Z,129.90
2019-05-14T09:10:20.430Z,130.43
2019-05-14T09:12:50.871Z,135.60
2019-05-14T09:15:20.591Z,130.47
2019-05-14T09:17:50.263Z,130.47
2019-05-14T09:20:20.117Z,131.33
2019-05-14T09:22:49.784Z,131.20
2019-05-14T09:25:19.627Z,132.13
2019-05-14T09:27:49.563Z,134.60
2019-05-14T09:30:19.438Z,131.83
2019-05-14T09:32:49.506Z,130.60
2019-05-14T09:35:19.291Z,134.10
2019-05-14T09:37:51.307Z,130.40
2019-05-14T09:40:20.554Z,131.17
2019-05-14T09:42:50.300Z,131.33
2019-05-14T09:45:20.090Z,131.10
2019-05-14T09:47:50.747Z,131.47
2019-05-14T09:50:23.379Z,134.07
2019-05-14T09:52:52.354Z,131.17
2019-05-14T09:55:22.219Z,131.63
2019-05-14T09:57:51.895Z,132.70
2019-05-14T10:00:21.723Z,130.60
2019-05-14T10:02:51.428Z,134.23
2019-05-14T10:05:21.097Z,133.17
2019-05-14T10:07:50.906Z,131.53
2019-05-14T10:10:20.661Z,132.43
2019-05-14T10:12:56.361Z,131.40
2019-05-14T10:15:22.309Z,131.30
2019-05-14T10:17:52.008Z,131.83
2019-05-14T10:20:36.746Z,131.53
2019-05-14T10:22:53.238Z,131.53
2019-05-14T10:25:23.256Z,131.27
2019-05-14T10:27:53.085Z,131.60
2019-05-14T10:30:24.382Z,132.63
2019-05-14T10:32:54.153Z,133.67
2019-05-14T10:35:23.911Z,131.27
2019-05-14T10:37:54.432Z,131.47
2019-05-14T10:40:24.380Z,130.70
2019-05-14T10:42:54.096Z,132.37
2019-05-14T10:45:23.908Z,132.43
2019-05-14T10:47:53.663Z,131.67
2019-05-14T10:50:23.355Z,131.43
2019-05-14T10:52:53.097Z,132.30
2019-05-14T10:55:22.815Z,133.67
2019-05-14T10:57:54.342Z,132.60
2019-05-14T11:00:24.241Z,130.87
2019-05-14T11:02:54.110Z,133.53
2019-05-14T11:05:23.775Z,133.63
2019-05-14T11:07:54.512Z,135.43
2019-05-14T11:10:24.332Z,136.40
2019-05-14T11:12:55.076Z,130.30
2019-05-14T11:15:25.087Z,134.77
2019-05-14T11:17:54.797Z,133.37
2019-05-14T11:20:24.748Z,132.30
2019-05-14T11:22:54.499Z,132.40
2019-05-14T11:25:24.316Z,131.37
2019-05-14T11:27:54.049Z,130.57
2019-05-14T11:30:23.961Z,130.97
2019-05-14T11:32:53.752Z,130.53
2019-05-14T11:35:23.604Z,133.73
2019-05-14T11:37:53.414Z,131.53
2019-05-14T11:40:23.310Z,130.40
2019-05-14T11:42:53.033Z,132.90
2019-05-14T11:45:22.839Z,131.20
2019-05-14T11:47:52.537Z,135.07
2019-05-14T11:50:22.360Z,133.43
2019-05-14T11:52:52.077Z,131.67
2019-05-14T11:55:21.846Z,132.83
2019-05-14T11:57:51.552Z,130.83
2019-05-14T12:00:21.465Z,131.10
2019-05-14T12:02:51.152Z,130.63
2019-05-14T12:05:20.840Z,130.93
2019-05-14T12:07:50.544Z,131.63
2019-05-14T12:10:20.394Z,132.00
2019-05-14T12:12:50.174Z,131.10
2019-05-14T12:15:20.027Z,132.00
2019-05-14T12:17:51.023Z,131.30
2019-05-14T12:20:22.305Z,131.53
2019-05-14T12:22:52.012Z,132.47
2019-05-14T12:25:21.793Z,131.23
2019-05-14T12:27:52.528Z,131.83
2019-05-14T12:30:22.344Z,133.13
2019-05-14T12:32:52.069Z,133.03
2019-05-14T12:35:21.755Z,136.70
2019-05-14T12:37:51.531Z,132.60
2019-05-14T12:40:21.487Z,137.73
2019-05-14T12:42:51.193Z,130.93
2019-05-14T12:45:21.452Z,133.63
2019-05-14T12:47:51.280Z,131.63
2019-05-14T12:50:21.961Z,132.80
2019-05-14T12:52:51.685Z,131.60
2019-05-14T12:55:21.547Z,131.50
2019-05-14T12:57:51.213Z,130.83
2019-05-14T13:00:21.259Z,131.73
2019-05-14T13:02:51.029Z,134.77
2019-05-14T13:05:20.791Z,135.97
2019-05-14T13:07:51.258Z,131.03
2019-05-14T13:10:21.228Z,133.37
2019-05-14T13:12:51.082Z,131.07
2019-05-14T13:15:21.184Z,132.03
2019-05-14T13:17:50.948Z,131.07
2019-05-14T13:20:21.275Z,133.23
2019-05-14T13:22:51.042Z,134.17
2019-05-14T13:25:20.795Z,131.70
2019-05-14T13:27:50.551Z,131.63
2019-05-14T13:30:20.589Z,135.27
2019-05-14T13:32:50.350Z,131.67
2019-05-14T13:35:20.284Z,131.67
2019-05-14T13:37:50.061Z,131.87
2019-05-14T13:40:21.156Z,130.87
2019-05-14T13:42:51.265Z,132.17
2019-05-14T13:45:21.408Z,131.00
2019-05-14T13:47:51.225Z,131.27
2019-05-14T13:50:21.046Z,131.20
2019-05-14T13:53:02.270Z,131.30
2019-05-14T13:55:22.319Z,132.23
2019-05-14T13:57:52.043Z,131.57
2019-05-14T14:00:22.076Z,131.77
2019-05-14T14:02:51.836Z,131.43
2019-05-14T14:05:22.900Z,131.63
2019-05-14T14:07:52.592Z,131.33
2019-05-14T14:10:22.404Z,131.73
2019-05-14T14:12:52.120Z,131.07
2019-05-14T14:15:21.797Z,132.13
2019-05-14T14:17:51.655Z,135.07
2019-05-14T14:20:21.453Z,131.17
2019-05-14T14:22:51.158Z,132.60
2019-05-14T14:25:20.840Z,131.30
2019-05-14T14:27:50.565Z,131.07
2019-05-14T14:30:22.330Z,131.03
2019-05-14T14:32:52.082Z,131.47
2019-05-14T14:35:24.111Z,131.07
2019-05-14T14:37:53.277Z,131.50
2019-05-14T14:40:23.406Z,131.10
2019-05-14T14:42:53.381Z,132.23
2019-05-14T14:45:24.120Z,131.47
2019-05-14T14:47:53.817Z,134.67
2019-05-14T14:50:23.488Z,131.70
2019-05-14T14:52:53.180Z,131.77
2019-05-14T14:55:22.893Z,130.30
2019-05-14T14:57:54.793Z,131.13
2019-05-14T15:00:29.041Z,131.57
2019-05-14T15:02:59.702Z,133.83
2019-05-14T15:05:29.702Z,131.43
2019-05-14T15:08:00.619Z,131.17
2019-05-14T15:10:30.285Z,133.23
2019-05-14T15:13:00.139Z,132.87
2019-05-14T15:15:32.235Z,131.03
2019-05-14T15:18:01.394Z,130.90
2019-05-14T15:20:31.173Z,131.37
2019-05-14T15:23:00.902Z,134.87
2019-05-14T15:25:30.703Z,132.20
2019-05-14T15:28:00.515Z,131.83
2019-05-14T15:30:30.375Z,132.77
2019-05-14T15:33:00.204Z,134.80
2019-05-14T15:35:30.103Z,131.67
2019-05-14T15:37:59.881Z,132.10
2019-05-14T15:40:29.868Z,131.77
2019-05-14T15:43:02.062Z,131.67
2019-05-14T15:45:31.099Z,131.73
2019-05-14T15:48:03.723Z,133.27
2019-05-14T15:50:32.972Z,132.07
2019-05-14T15:53:02.721Z,133.63
2019-05-14T15:55:32.507Z,133.60
2019-05-14T15:58:02.265Z,130.97
2019-05-14T16:00:32.058Z,132.80
2019-05-14T16:03:01.743Z,131.80
2019-05-14T16:05:31.504Z,131.27
2019-05-14T16:08:01.244Z,132.13
2019-05-14T16:10:31.547Z,133.07
2019-05-14T16:13:01.382Z,134.57
2019-05-14T16:15:31.145Z,131.90
2019-05-14T16:18:09.033Z,132.27
2019-05-14T16:20:32.355Z,132.00
2019-05-14T16:23:02.055Z,132.60
2019-05-14T16:25:31.833Z,132.00
2019-05-14T16:28:01.553Z,132.20
2019-05-14T16:30:31.323Z,132.20
2019-05-14T16:33:01.025Z,133.03
2019-05-14T16:35:30.802Z,131.70
2019-05-14T16:38:00.612Z,132.03
2019-05-14T16:40:30.446Z,133.90
2019-05-14T16:43:00.129Z,131.33
2019-05-14T16:45:29.913Z,132.03
2019-05-14T16:47:59.734Z,132.00
2019-05-14T16:50:29.617Z,132.20
2019-05-14T16:52:59.613Z,133.07
2019-05-14T16:55:30.678Z,132.43
2019-05-14T16:58:01.662Z,135.20
2019-05-14T17:00:34.564Z,133.07
2019-05-14T17:03:02.966Z,132.03
2019-05-14T17:05:32.674Z,134.33
2019-05-14T17:08:02.365Z,132.30
2019-05-14T17:10:33.137Z,133.10
2019-05-14T17:13:02.833Z,132.23
2019-05-14T17:15:32.520Z,134.77
2019-05-14T17:18:02.302Z,133.87
2019-05-14T17:20:32.003Z,132.80
2019-05-14T17:23:01.685Z,131.53
2019-05-14T17:25:31.391Z,132.30
2019-05-14T17:28:01.111Z,134.80
2019-05-14T17:30:30.970Z,132.30
2019-05-14T17:33:00.706Z,133.60
2019-05-14T17:35:30.539Z,132.67
2019-05-14T17:38:00.286Z,133.00
2019-05-14T17:40:30.172Z,135.40
2019-05-14T17:42:59.871Z,135.37
2019-05-14T17:45:29.699Z,133.37
2019-05-14T17:47:59.517Z,133.27
2019-05-14T17:50:29.405Z,131.63
2019-05-14T17:53:00.388Z,132.10
2019-05-14T17:55:43.737Z,133.00
2019-05-14T17:58:01.792Z,132.10
2019-05-14T18:00:31.515Z,137.37
2019-05-14T18:03:01.213Z,133.80
2019-05-14T18:05:30.987Z,137.40
2019-05-14T18:08:00.758Z,131.77
2019-05-14T18:10:30.559Z,131.63
2019-05-14T18:13:00.233Z,132.47
2019-05-14T18:15:29.940Z,133.00
2019-05-14T18:17:59.724Z,131.50
2019-05-14T18:20:29.558Z,133.63
2019-05-14T18:22:59.239Z,132.50
2019-05-14T18:25:29.252Z,131.60
2019-05-14T18:27:59.052Z,135.23
2019-05-14T18:30:29.170Z,131.53
2019-05-14T18:32:59.002Z,132.37
2019-05-14T18:35:29.525Z,131.93
2019-05-14T18:37:59.391Z,131.47
2019-05-14T18:40:29.263Z,130.83
2019-05-14T18:42:59.402Z,132.27
2019-05-14T18:45:29.564Z,132.70
2019-05-14T18:47:59.424Z,135.27
2019-05-14T18:50:29.223Z,131.53
2019-05-14T18:52:59.868Z,132.23
2019-05-14T18:55:29.739Z,130.97
2019-05-14T18:57:59.574Z,132.63
2019-05-14T19:00:29.728Z,131.13
2019-05-14T19:02:59.500Z,131.47
2019-05-14T19:05:29.647Z,131.50
2019-05-14T19:07:59.506Z,131.87
2019-05-14T19:10:29.467Z,131.80
2019-05-14T19:12:59.241Z,130.53
2019-05-14T19:15:29.093Z,131.73
2019-05-14T19:18:01.351Z,131.60
2019-05-14T19:20:30.439Z,131.43
2019-05-14T19:23:00.362Z,134.43
2019-05-14T19:25:30.083Z,131.60
2019-05-14T19:27:59.888Z,133.00
2019-05-14T19:30:29.678Z,131.73
2019-05-14T19:32:59.580Z,131.43
2019-05-14T19:35:29.433Z,135.10
2019-05-14T19:37:59.574Z,134.10
2019-05-14T19:40:29.515Z,131.80
2019-05-14T19:42:59.258Z,135.40
2019-05-14T19:45:29.460Z,132.87
2019-05-14T19:47:59.147Z,131.20
2019-05-14T19:50:29.447Z,132.23
2019-05-14T19:52:59.468Z,132.53
2019-05-14T19:55:29.432Z,133.87
2019-05-14T19:57:59.297Z,131.30
2019-05-14T20:00:30.196Z,133.80
2019-05-14T20:02:59.927Z,136.37
2019-05-14T20:05:29.645Z,131.50
2019-05-14T20:08:00.380Z,132.07
2019-05-14T20:10:30.170Z,132.33
2019-05-14T20:12:59.966Z,131.03
2019-05-14T20:15:29.830Z,132.47
2019-05-14T20:17:59.604Z,131.37
2019-05-14T20:20:29.341Z,132.27
2019-05-14T20:22:59.172Z,130.73
2019-05-14T20:25:28.947Z,131.70
2019-05-14T20:27:58.886Z,132.07
2019-05-14T20:30:29.423Z,132.40
2019-05-14T20:32:59.475Z,132.03
2019-05-14T20:35:34.528Z,133.47
2019-05-14T20:38:01.796Z,132.87
2019-05-14T20:40:31.587Z,132.27
2019-05-14T20:43:01.380Z,131.23
2019-05-14T20:45:31.256Z,131.73
2019-05-14T20:48:00.948Z,131.00
2019-05-14T20:50:30.865Z,131.53
2019-05-14T20:53:00.648Z,131.20
2019-05-14T20:55:30.502Z,134.63
2019-05-14T20:58:00.213Z,131.57
2019-05-14T21:00:29.992Z,131.57
2019-05-14T21:02:59.859Z,131.37
2019-05-14T21:05:29.636Z,130.63
2019-05-14T21:08:00.302Z,131.23
2019-05-14T21:10:29.988Z,130.93
2019-05-14T21:13:00.732Z,131.40
2019-05-14T21:15:30.530Z,131.43
2019-05-14T21:18:00.311Z,131.57
2019-05-14T21:20:30.047Z,132.30
2019-05-14T21:22:59.887Z,131.20
2019-05-14T21:25:29.817Z,130.80
2019-05-14T21:27:59.518Z,131.33
2019-05-14T21:30:29.738Z,131.07
2019-05-14T21:33:00.441Z,132.03
2019-05-14T21:35:30.453Z,131.20
2019-05-14T21:38:00.338Z,131.33
2019-05-14T21:40:32.188Z,131.13
2019-05-14T21:43:02.532Z,131.47
2019-05-14T21:45:32.319Z,131.63
2019-05-14T21:48:02.051Z,132.47
2019-05-14T21:50:31.724Z,131.20
2019-05-14T21:53:01.511Z,132.63
2019-05-14T21:55:31.215Z,130.63
2019-05-14T21:58:00.921Z,131.67
2019-05-14T22:00:41.898Z,134.50
2019-05-14T22:03:10.551Z,131.10
2019-05-14T22:05:40.424Z,134.17
2019-05-14T22:08:10.119Z,131.17
2019-05-14T22:10:40.195Z,134.20
2019-05-14T22:13:10.129Z,141.27
2019-05-14T22:15:40.946Z,132.83
2019-05-14T22:18:16.942Z,130.47
2019-05-14T22:20:42.280Z,131.03
2019-05-14T22:23:11.952Z,131.17
2019-05-14T22:25:41.722Z,131.47
2019-05-14T22:28:15.527Z,131.30
2019-05-14T22:30:42.859Z,131.20
2019-05-14T22:33:12.547Z,136.07
2019-05-14T22:35:42.345Z,131.57
2019-05-14T22:38:12.038Z,131.33
2019-05-14T22:40:41.816Z,132.87
2019-05-14T22:43:11.498Z,130.43
2019-05-14T22:45:41.172Z,132.10
2019-05-14T22:48:10.876Z,131.03
2019-05-14T22:50:41.404Z,131.00
2019-05-14T22:53:11.247Z,131.33
2019-05-14T22:55:41.033Z,133.10
2019-05-14T22:58:24.608Z,132.07
2019-05-14T23:00:46.476Z,131.70
2019-05-14T23:03:13.511Z,131.37
2019-05-14T23:05:43.179Z,131.07
2019-05-14T23:08:12.922Z,131.43
2019-05-14T23:10:42.598Z,130.67
2019-05-14T23:13:12.296Z,132.50
2019-05-14T23:15:41.979Z,130.63
2019-05-14T23:18:11.695Z,131.23
2019-05-14T23:20:41.452Z,130.60
2019-05-14T23:23:11.211Z,131.10
2019-05-14T23:25:40.964Z,131.57
2019-05-14T23:28:10.734Z,131.47
2019-05-14T23:30:40.529Z,130.87
2019-05-14T23:33:10.224Z,133.27
2019-05-14T23:35:40.193Z,130.47
2019-05-14T23:38:10.232Z,130.30
2019-05-14T23:40:39.979Z,132.33
2019-05-14T23:43:09.662Z,131.10
2019-05-14T23:45:39.336Z,130.93
2019-05-14T23:48:09.622Z,131.83
2019-05-14T23:50:39.412Z,130.73
2019-05-14T23:53:09.414Z,130.47
2019-05-14T23:55:39.240Z,131.10
2019-05-14T23:58:08.958Z,130.80
